Time;durP1;ratioP1;P1;durP2;ratioP2;P2;SDS_P1;SDS_P2;PMS_P1;PMS_P2;Temp;Humidity;BMP_temperature;BMP_pressure;BME280_temperature;BME280_humidity;BME280_pressure;Samples;Min_cycle;Max_cycle;Signal;HPM_P1;HPM_P2
2023/07/09 00:01:11;;;;;;;19.58;5.95;;;;;;;;;;4968569;28;20154;-68
2023/07/09 00:03:37;;;;;;;21.02;6.18;;;;;;;;;;4987819;28;20029;-69
2023/07/09 00:06:03;;;;;;;20.65;6.55;;;;;;;;;;4983567;28;20392;-67
2023/07/09 00:08:31;;;;;;;18.65;6.03;;;;;;;;;;4987877;28;20028;-67
2023/07/09 00:10:58;;;;;;;25.08;6.32;;;;;;;;;;4984726;28;20018;-68
2023/07/09 00:13:25;;;;;;;19.92;6.50;;;;;;;;;;4988035;28;20033;-68
2023/07/09 00:15:52;;;;;;;19.80;6.40;;;;;;;;;;4990629;28;20572;-68
2023/07/09 00:18:19;;;;;;;20.83;6.28;;;;;;;;;;4984161;28;20037;-69
2023/07/09 00:20:48;;;;;;;22.10;6.60;;;;;;;;;;4984018;28;20039;-68
2023/07/09 00:23:14;;;;;;;21.38;6.97;;;;;;;;;;4987150;28;20127;-68
2023/07/09 00:25:44;;;;;;;18.38;6.45;;;;;;;;;;4985065;28;20030;-68
2023/07/09 00:28:14;;;;;;;16.42;6.00;;;;;;;;;;4989183;28;20029;-68
2023/07/09 00:30:40;;;;;;;18.35;6.03;;;;;;;;;;5028888;28;20726;-68
2023/07/09 00:33:11;;;;;;;14.75;5.40;;;;;;;;;;5017902;28;20034;-69
2023/07/09 00:35:40;;;;;;;22.52;6.45;;;;;;;;;;5027545;28;20029;-68
2023/07/09 00:38:08;;;;;;;22.15;6.53;;;;;;;;;;5025635;28;20033;-68
2023/07/09 00:40:34;;;;;;;24.95;6.70;;;;;;;;;;5028566;28;20060;-70
2023/07/09 00:43:00;;;;;;;19.85;6.35;;;;;;;;;;5023564;28;20032;-67
2023/07/09 00:45:27;;;;;;;17.20;5.80;;;;;;;;;;5026276;28;20832;-68
2023/07/09 00:47:56;;;;;;;17.60;6.32;;;;;;;;;;5023904;28;20057;-67
2023/07/09 00:50:49;;;;;;;18.45;6.30;;;;;;;;;;5028824;28;20017;-67
2023/07/09 00:53:19;;;;;;;17.60;6.25;;;;;;;;;;5024224;28;20060;-67
2023/07/09 00:55:46;;;;;;;15.93;6.10;;;;;;;;;;5028878;28;20497;-68
2023/07/09 00:58:15;;;;;;;18.90;6.80;;;;;;;;;;5025837;28;20037;-67
2023/07/09 01:00:49;;;;;;;15.00;5.53;;;;;;;;;;5026079;28;20381;-67
2023/07/09 01:03:29;;;;;;;18.70;6.65;;;;;;;;;;5021560;28;20501;-67
2023/07/09 01:05:57;;;;;;;18.42;5.75;;;;;;;;;;5028163;28;20032;-67
2023/07/09 01:08:24;;;;;;;21.30;6.50;;;;;;;;;;5029603;28;20021;-68
2023/07/09 01:10:50;;;;;;;19.60;6.20;;;;;;;;;;5024324;28;20059;-67
2023/07/09 01:13:19;;;;;;;18.10;6.53;;;;;;;;;;5024365;28;21556;-67
2023/07/09 01:15:46;;;;;;;20.17;6.47;;;;;;;;;;5026802;28;20563;-68
2023/07/09 01:18:14;;;;;;;16.10;5.70;;;;;;;;;;5022496;28;20097;-67
2023/07/09 01:20:40;;;;;;;21.58;6.53;;;;;;;;;;5027272;28;20032;-67
2023/07/09 01:23:07;;;;;;;23.90;7.05;;;;;;;;;;5023318;28;20033;-67
2023/07/09 01:25:34;;;;;;;18.60;6.07;;;;;;;;;;5025497;28;20171;-67
2023/07/09 01:28:00;;;;;;;19.02;6.18;;;;;;;;;;5019884;28;20140;-68
2023/07/09 01:30:39;;;;;;;23.20;6.85;;;;;;;;;;5025904;28;20566;-68
2023/07/09 01:33:06;;;;;;;17.90;5.88;;;;;;;;;;5023851;28;20118;-67
2023/07/09 01:35:34;;;;;;;18.63;6.97;;;;;;;;;;5026733;28;20376;-67
2023/07/09 01:38:00;;;;;;;18.73;6.45;;;;;;;;;;5020175;28;20029;-68
2023/07/09 01:40:28;;;;;;;21.65;6.68;;;;;;;;;;5024343;28;20029;-67
2023/07/09 01:42:55;;;;;;;19.38;6.65;;;;;;;;;;5040902;28;20068;-70
2023/07/09 01:45:22;;;;;;;24.98;6.82;;;;;;;;;;5025348;28;20506;-67
2023/07/09 01:47:48;;;;;;;19.92;6.13;;;;;;;;;;5025529;28;20598;-67
2023/07/09 01:50:16;;;;;;;16.67;6.18;;;;;;;;;;5020068;28;20033;-68
2023/07/09 01:52:43;;;;;;;22.40;6.78;;;;;;;;;;5025415;28;20498;-67
2023/07/09 01:55:10;;;;;;;15.60;5.88;;;;;;;;;;5022654;28;20538;-67
2023/07/09 01:57:37;;;;;;;19.85;6.88;;;;;;;;;;5023851;28;20033;-67
2023/07/09 02:00:13;;;;;;;21.83;7.03;;;;;;;;;;5023043;28;20604;-66
2023/07/09 02:02:43;;;;;;;22.83;6.95;;;;;;;;;;5026654;28;20479;-67
2023/07/09 02:05:09;;;;;;;19.80;6.10;;;;;;;;;;5019521;28;20502;-68
2023/07/09 02:07:35;;;;;;;20.65;6.25;;;;;;;;;;5031729;28;20345;-67
2023/07/09 02:10:02;;;;;;;17.48;5.97;;;;;;;;;;5022446;28;20691;-66
2023/07/09 02:12:28;;;;;;;17.17;5.95;;;;;;;;;;5025765;28;20021;-66
2023/07/09 02:14:54;;;;;;;16.58;5.93;;;;;;;;;;5027271;28;20032;-67
2023/07/09 02:17:20;;;;;;;19.70;6.15;;;;;;;;;;5022397;28;20025;-66
2023/07/09 02:19:46;;;;;;;18.77;6.60;;;;;;;;;;5019082;28;20098;-68
2023/07/09 02:22:12;;;;;;;17.30;5.85;;;;;;;;;;5023126;28;20094;-67
2023/07/09 02:24:39;;;;;;;20.05;6.45;;;;;;;;;;5026296;28;20033;-67
2023/07/09 02:27:06;;;;;;;19.75;6.18;;;;;;;;;;5022684;28;20040;-67
2023/07/09 02:29:33;;;;;;;17.33;6.90;;;;;;;;;;5026410;28;20029;-67
2023/07/09 02:32:00;;;;;;;19.42;5.70;;;;;;;;;;5023093;28;20083;-67
2023/07/09 02:34:27;;;;;;;17.85;5.63;;;;;;;;;;5027176;28;20483;-67
2023/07/09 02:36:54;;;;;;;19.15;6.20;;;;;;;;;;5031085;28;20030;-67
2023/07/09 02:39:20;;;;;;;19.67;6.20;;;;;;;;;;5023249;28;20029;-66
2023/07/09 02:41:46;;;;;;;18.02;6.00;;;;;;;;;;5027085;28;20028;-67
2023/07/09 02:44:13;;;;;;;20.20;6.18;;;;;;;;;;5022292;28;20029;-67
2023/07/09 02:46:39;;;;;;;16.92;6.10;;;;;;;;;;5023464;28;20041;-67
2023/07/09 02:49:06;;;;;;;18.58;5.88;;;;;;;;;;5021356;28;20905;-67
2023/07/09 02:51:32;;;;;;;16.55;5.82;;;;;;;;;;5024865;28;20115;-67
2023/07/09 02:53:59;;;;;;;14.43;5.43;;;;;;;;;;5031934;28;20029;-67
2023/07/09 02:56:25;;;;;;;19.92;6.20;;;;;;;;;;5030681;28;20033;-67
2023/07/09 02:58:51;;;;;;;19.42;5.97;;;;;;;;;;5028427;28;20624;-67
2023/07/09 03:01:20;;;;;;;15.75;5.53;;;;;;;;;;5026193;28;20021;-67
2023/07/09 03:03:46;;;;;;;19.83;6.60;;;;;;;;;;5027384;28;20036;-67
2023/07/09 03:06:12;;;;;;;17.63;6.10;;;;;;;;;;5036158;28;20025;-67
2023/07/09 03:08:38;;;;;;;18.10;5.90;;;;;;;;;;5029488;28;20029;-66
2023/07/09 03:11:11;;;;;;;15.65;5.85;;;;;;;;;;5024155;28;20021;-67
2023/07/09 03:13:37;;;;;;;16.98;5.72;;;;;;;;;;5027896;28;20502;-67
2023/07/09 03:16:04;;;;;;;16.25;5.60;;;;;;;;;;5025095;28;20036;-67
2023/07/09 03:18:30;;;;;;;17.15;5.10;;;;;;;;;;5026856;28;20049;-67
2023/07/09 03:20:56;;;;;;;19.50;5.75;;;;;;;;;;5030012;28;20459;-67
2023/07/09 03:23:22;;;;;;;16.65;5.47;;;;;;;;;;5033072;28;20053;-66
2023/07/09 03:25:48;;;;;;;19.63;6.22;;;;;;;;;;5026547;28;20061;-67
2023/07/09 03:28:15;;;;;;;22.88;6.60;;;;;;;;;;5025573;28;20028;-67
2023/07/09 03:30:42;;;;;;;18.42;5.50;;;;;;;;;;5024945;28;20025;-67
2023/07/09 03:33:09;;;;;;;15.85;5.93;;;;;;;;;;5027726;28;20114;-67
2023/07/09 03:35:36;;;;;;;22.90;6.82;;;;;;;;;;5029790;28;20640;-67
2023/07/09 03:38:02;;;;;;;20.25;6.50;;;;;;;;;;5025741;28;20040;-67
2023/07/09 03:40:28;;;;;;;20.25;6.28;;;;;;;;;;5029255;28;20021;-67
2023/07/09 03:42:54;;;;;;;15.73;5.68;;;;;;;;;;5028958;28;20061;-66
2023/07/09 03:45:20;;;;;;;17.90;5.97;;;;;;;;;;5024322;28;20025;-67
2023/07/09 03:47:47;;;;;;;16.98;5.97;;;;;;;;;;5030915;28;20045;-67
2023/07/09 03:50:13;;;;;;;21.52;6.95;;;;;;;;;;5024162;28;20029;-67
2023/07/09 03:52:39;;;;;;;14.35;5.57;;;;;;;;;;5029995;28;20032;-67
2023/07/09 03:55:05;;;;;;;18.00;6.00;;;;;;;;;;5026697;28;20111;-67
2023/07/09 03:57:32;;;;;;;19.48;6.35;;;;;;;;;;5027907;28;20062;-66
2023/07/09 03:59:58;;;;;;;15.02;5.82;;;;;;;;;;5026582;28;20047;-67
2023/07/09 04:02:24;;;;;;;18.33;5.90;;;;;;;;;;5027233;28;20514;-67
2023/07/09 04:04:50;;;;;;;18.75;6.18;;;;;;;;;;5027376;28;20033;-66
2023/07/09 04:07:17;;;;;;;17.33;5.68;;;;;;;;;;5025245;28;20644;-67
2023/07/09 04:09:43;;;;;;;17.67;5.65;;;;;;;;;;5027901;28;20102;-67
2023/07/09 04:12:09;;;;;;;16.10;5.75;;;;;;;;;;5023823;28;20321;-67
2023/07/09 04:14:36;;;;;;;16.40;6.10;;;;;;;;;;5022723;28;20200;-67
2023/07/09 04:17:02;;;;;;;19.88;5.53;;;;;;;;;;5025227;28;20021;-67
2023/07/09 04:19:28;;;;;;;19.27;5.78;;;;;;;;;;5030968;28;20120;-67
2023/07/09 04:21:54;;;;;;;17.15;5.53;;;;;;;;;;5027396;28;20053;-67
2023/07/09 04:24:21;;;;;;;15.23;5.38;;;;;;;;;;5024174;28;20040;-67
2023/07/09 04:26:47;;;;;;;18.05;5.55;;;;;;;;;;5026251;28;20102;-67
2023/07/09 04:29:13;;;;;;;16.15;5.93;;;;;;;;;;5025447;28;20141;-67
2023/07/09 04:31:40;;;;;;;16.55;5.78;;;;;;;;;;5029074;28;20021;-68
2023/07/09 04:34:07;;;;;;;17.90;6.00;;;;;;;;;;5027382;28;20025;-68
2023/07/09 04:36:33;;;;;;;17.83;6.20;;;;;;;;;;5025430;28;20573;-67
2023/07/09 04:38:59;;;;;;;16.63;5.05;;;;;;;;;;5026617;28;20033;-68
2023/07/09 04:41:26;;;;;;;14.70;5.70;;;;;;;;;;5028657;28;20036;-68
2023/07/09 04:43:52;;;;;;;16.88;6.22;;;;;;;;;;5025897;28;20592;-68
2023/07/09 04:46:18;;;;;;;15.27;5.00;;;;;;;;;;5026222;28;20441;-68
2023/07/09 04:48:44;;;;;;;15.93;5.38;;;;;;;;;;5029816;28;20376;-68
2023/07/09 04:51:10;;;;;;;14.43;5.05;;;;;;;;;;5024953;28;20081;-67
2023/07/09 04:53:36;;;;;;;17.90;5.85;;;;;;;;;;5027346;28;20041;-68
2023/07/09 04:56:03;;;;;;;20.73;5.85;;;;;;;;;;5024433;28;20311;-68
2023/07/09 04:58:30;;;;;;;18.25;5.72;;;;;;;;;;5028803;28;20403;-67
2023/07/09 05:00:59;;;;;;;21.73;6.60;;;;;;;;;;5026679;28;20040;-67
2023/07/09 05:03:26;;;;;;;23.40;6.88;;;;;;;;;;5026680;28;20095;-67
2023/07/09 05:05:52;;;;;;;19.65;6.18;;;;;;;;;;5026901;28;20477;-67
2023/07/09 05:08:18;;;;;;;16.98;5.90;;;;;;;;;;5024401;28;20144;-67
2023/07/09 05:10:50;;;;;;;16.55;5.85;;;;;;;;;;5026186;28;20132;-68
2023/07/09 05:13:16;;;;;;;20.00;6.40;;;;;;;;;;5025223;28;20021;-67
2023/07/09 05:15:44;;;;;;;20.35;6.95;;;;;;;;;;5028252;28;20044;-67
2023/07/09 05:18:11;;;;;;;19.27;6.78;;;;;;;;;;5031140;28;20043;-67
2023/07/09 05:20:37;;;;;;;21.23;6.28;;;;;;;;;;5029348;28;20490;-67
2023/07/09 05:23:03;;;;;;;23.13;6.38;;;;;;;;;;5015373;28;20496;-67
2023/07/09 05:25:29;;;;;;;18.80;6.50;;;;;;;;;;5031707;28;20483;-67
2023/07/09 05:27:56;;;;;;;14.95;5.68;;;;;;;;;;5026868;28;20079;-67
2023/07/09 05:30:22;;;;;;;17.88;6.18;;;;;;;;;;5027831;28;20054;-67
2023/07/09 05:32:48;;;;;;;17.02;5.22;;;;;;;;;;5029366;28;20062;-67
2023/07/09 05:35:15;;;;;;;21.55;5.75;;;;;;;;;;5027055;28;20033;-67
2023/07/09 05:37:41;;;;;;;21.42;5.95;;;;;;;;;;5028490;28;20047;-67
2023/07/09 05:40:08;;;;;;;18.83;5.68;;;;;;;;;;5021859;28;20033;-67
2023/07/09 05:42:35;;;;;;;16.30;5.40;;;;;;;;;;5024627;28;20244;-67
2023/07/09 05:45:01;;;;;;;19.15;6.05;;;;;;;;;;5023273;28;20320;-67
2023/07/09 05:47:27;;;;;;;16.98;5.50;;;;;;;;;;5026261;28;20072;-67
2023/07/09 05:49:53;;;;;;;21.02;5.70;;;;;;;;;;5026581;28;20470;-67
2023/07/09 05:52:21;;;;;;;21.48;6.30;;;;;;;;;;5025657;28;20544;-67
2023/07/09 05:54:49;;;;;;;18.60;5.55;;;;;;;;;;5029412;28;20055;-67
2023/07/09 05:57:15;;;;;;;15.55;5.72;;;;;;;;;;5022870;28;20028;-68
2023/07/09 05:59:41;;;;;;;19.50;6.38;;;;;;;;;;5027551;28;20033;-67
2023/07/09 06:02:11;;;;;;;17.75;6.03;;;;;;;;;;5022778;28;20498;-67
2023/07/09 06:04:37;;;;;;;18.75;5.97;;;;;;;;;;5032936;28;20129;-67
2023/07/09 06:07:03;;;;;;;14.73;5.15;;;;;;;;;;5026844;28;20032;-66
2023/07/09 06:09:31;;;;;;;19.83;5.57;;;;;;;;;;5026350;28;20025;-67
2023/07/09 06:11:57;;;;;;;14.82;5.07;;;;;;;;;;5024834;28;20493;-67
2023/07/09 06:14:24;;;;;;;22.02;5.20;;;;;;;;;;5021906;28;20033;-67
2023/07/09 06:16:50;;;;;;;15.80;4.82;;;;;;;;;;5023146;28;20487;-67
2023/07/09 06:19:16;;;;;;;17.85;5.88;;;;;;;;;;5021194;28;20347;-67
2023/07/09 06:21:42;;;;;;;14.48;5.30;;;;;;;;;;5021074;28;20033;-67
2023/07/09 06:24:09;;;;;;;16.20;5.40;;;;;;;;;;5019170;28;20426;-67
2023/07/09 06:26:35;;;;;;;18.80;6.15;;;;;;;;;;5025760;28;20383;-68
2023/07/09 06:29:01;;;;;;;22.83;5.70;;;;;;;;;;5020345;28;20072;-67
2023/07/09 06:31:28;;;;;;;17.88;6.03;;;;;;;;;;5024347;28;20032;-67
2023/07/09 06:33:54;;;;;;;17.45;6.13;;;;;;;;;;5022796;28;20027;-68
2023/07/09 06:36:20;;;;;;;17.95;6.15;;;;;;;;;;5021539;28;20114;-67
2023/07/09 06:38:47;;;;;;;22.33;6.35;;;;;;;;;;5024027;28;20029;-67
2023/07/09 06:41:14;;;;;;;19.27;6.20;;;;;;;;;;5015946;28;20372;-68
2023/07/09 06:43:41;;;;;;;19.20;5.85;;;;;;;;;;5024331;28;20625;-67
2023/07/09 06:46:10;;;;;;;19.60;5.55;;;;;;;;;;5022506;28;20040;-67
2023/07/09 06:48:36;;;;;;;21.88;6.00;;;;;;;;;;5022348;28;20034;-67
2023/07/09 06:51:02;;;;;;;15.43;5.35;;;;;;;;;;5022382;28;20795;-67
2023/07/09 06:53:29;;;;;;;16.63;5.13;;;;;;;;;;5025663;28;20025;-69
2023/07/09 06:55:58;;;;;;;17.45;5.25;;;;;;;;;;5023684;28;20136;-67
2023/07/09 06:58:27;;;;;;;16.83;5.30;;;;;;;;;;5025297;28;20035;-67
2023/07/09 07:00:54;;;;;;;20.13;6.18;;;;;;;;;;5025612;28;20036;-68
2023/07/09 07:03:26;;;;;;;18.30;6.00;;;;;;;;;;5018570;28;20056;-67
2023/07/09 07:05:53;;;;;;;16.83;5.63;;;;;;;;;;5025041;28;20024;-68
2023/07/09 07:08:20;;;;;;;18.15;5.55;;;;;;;;;;5021822;28;20030;-68
2023/07/09 07:10:48;;;;;;;19.05;5.80;;;;;;;;;;5023740;28;20036;-67
2023/07/09 07:13:14;;;;;;;19.83;5.60;;;;;;;;;;5024336;28;20028;-67
2023/07/09 07:15:41;;;;;;;23.70;8.27;;;;;;;;;;5021821;28;20017;-67
2023/07/09 07:18:07;;;;;;;19.42;6.68;;;;;;;;;;5020283;28;20035;-67
2023/07/09 07:20:34;;;;;;;25.50;8.48;;;;;;;;;;5024769;28;20106;-67
2023/07/09 07:23:00;;;;;;;23.63;7.65;;;;;;;;;;5018007;28;20033;-67
2023/07/09 07:25:27;;;;;;;21.08;6.20;;;;;;;;;;5023197;28;20210;-68
2023/07/09 07:27:53;;;;;;;19.52;6.38;;;;;;;;;;5023847;28;20241;-68
2023/07/09 07:30:19;;;;;;;22.95;7.75;;;;;;;;;;5015723;28;20116;-67
2023/07/09 07:32:47;;;;;;;22.95;7.80;;;;;;;;;;5041167;28;20675;-68
2023/07/09 07:35:13;;;;;;;18.65;6.95;;;;;;;;;;5021424;28;20052;-68
2023/07/09 07:37:40;;;;;;;24.00;6.22;;;;;;;;;;5024496;28;20083;-69
2023/07/09 07:40:07;;;;;;;16.15;5.68;;;;;;;;;;5024538;28;20025;-68
2023/07/09 07:42:33;;;;;;;16.63;5.20;;;;;;;;;;5028665;28;20025;-69
2023/07/09 07:44:59;;;;;;;14.63;4.97;;;;;;;;;;5024332;28;20145;-68
2023/07/09 07:47:27;;;;;;;16.05;5.47;;;;;;;;;;5028838;28;20041;-68
2023/07/09 07:49:53;;;;;;;18.33;5.75;;;;;;;;;;5031776;28;20032;-68
2023/07/09 07:52:19;;;;;;;17.00;5.32;;;;;;;;;;5025597;28;20026;-69
2023/07/09 07:54:46;;;;;;;16.17;5.10;;;;;;;;;;5030833;28;20053;-69
2023/07/09 07:57:12;;;;;;;16.10;5.47;;;;;;;;;;5024521;28;20063;-69
2023/07/09 07:59:38;;;;;;;18.98;5.82;;;;;;;;;;5024149;28;20028;-68
2023/07/09 08:02:05;;;;;;;17.65;5.63;;;;;;;;;;5020679;28;20039;-68
2023/07/09 08:04:31;;;;;;;14.13;4.82;;;;;;;;;;5023957;28;20151;-68
2023/07/09 08:06:58;;;;;;;15.95;5.20;;;;;;;;;;5022192;28;20136;-68
2023/07/09 08:09:24;;;;;;;15.32;4.95;;;;;;;;;;5023731;28;20111;-68
2023/07/09 08:11:51;;;;;;;17.27;5.28;;;;;;;;;;5022233;28;20025;-68
2023/07/09 08:14:18;;;;;;;15.35;5.55;;;;;;;;;;5020415;28;20822;-68
2023/07/09 08:16:44;;;;;;;18.90;5.60;;;;;;;;;;5023263;28;20806;-68
2023/07/09 08:19:11;;;;;;;16.27;5.57;;;;;;;;;;5018058;28;20045;-68
2023/07/09 08:21:37;;;;;;;21.17;6.18;;;;;;;;;;5023098;28;20144;-69
2023/07/09 08:24:03;;;;;;;16.73;5.60;;;;;;;;;;5016203;28;21394;-67
2023/07/09 08:26:31;;;;;;;23.90;6.00;;;;;;;;;;5025019;28;20025;-67
2023/07/09 08:28:57;;;;;;;16.08;5.13;;;;;;;;;;5020329;28;20542;-67
2023/07/09 08:31:23;;;;;;;17.63;5.47;;;;;;;;;;5021793;28;20036;-69
2023/07/09 08:33:50;;;;;;;15.90;4.95;;;;;;;;;;5035751;28;20394;-68
2023/07/09 08:36:16;;;;;;;18.65;5.22;;;;;;;;;;5018683;28;20542;-72
2023/07/09 08:38:42;;;;;;;18.60;5.45;;;;;;;;;;5024092;28;20033;-67
2023/07/09 08:41:09;;;;;;;18.15;5.20;;;;;;;;;;5018675;28;20473;-68
2023/07/09 08:43:51;;;;;;;20.60;6.03;;;;;;;;;;5021762;28;20540;-67
2023/07/09 08:46:22;;;;;;;15.63;5.05;;;;;;;;;;5016039;28;22426;-67
2023/07/09 08:48:50;;;;;;;19.10;5.72;;;;;;;;;;5022014;28;20037;-67
2023/07/09 08:51:20;;;;;;;19.90;5.53;;;;;;;;;;5016812;28;20033;-69
2023/07/09 08:53:50;;;;;;;18.75;6.13;;;;;;;;;;5020577;28;20366;-69
2023/07/09 08:56:16;;;;;;;19.58;6.40;;;;;;;;;;5016124;28;20055;-69
2023/07/09 08:58:44;;;;;;;20.27;6.00;;;;;;;;;;5021156;28;20039;-69
2023/07/09 09:01:19;;;;;;;17.00;5.53;;;;;;;;;;5017748;28;20044;-69
2023/07/09 09:03:48;;;;;;;16.17;5.85;;;;;;;;;;5022504;28;20036;-69
2023/07/09 09:06:18;;;;;;;23.77;6.38;;;;;;;;;;5014689;28;20526;-69
2023/07/09 09:08:52;;;;;;;19.17;6.13;;;;;;;;;;5020329;28;20074;-69
2023/07/09 09:11:25;;;;;;;18.42;6.25;;;;;;;;;;5018834;28;20285;-69
2023/07/09 09:13:53;;;;;;;16.05;5.35;;;;;;;;;;5022850;28;20382;-69
2023/07/09 09:16:22;;;;;;;17.70;5.50;;;;;;;;;;5034705;28;20032;-68
2023/07/09 09:18:49;;;;;;;15.98;5.85;;;;;;;;;;5019226;28;20696;-68
2023/07/09 09:21:23;;;;;;;20.20;5.95;;;;;;;;;;5018235;28;20508;-68
2023/07/09 09:23:53;;;;;;;19.73;5.70;;;;;;;;;;5019147;28;20025;-66
2023/07/09 09:26:24;;;;;;;18.52;6.15;;;;;;;;;;5019495;28;20033;-66
2023/07/09 09:28:51;;;;;;;18.77;6.03;;;;;;;;;;5021384;28;20376;-67
2023/07/09 09:31:18;;;;;;;18.60;5.95;;;;;;;;;;5015772;28;21200;-66
2023/07/09 09:33:46;;;;;;;17.67;5.57;;;;;;;;;;5021365;28;20314;-67
2023/07/09 09:36:23;;;;;;;18.20;5.95;;;;;;;;;;5018511;28;20036;-67
2023/07/09 09:38:50;;;;;;;23.33;6.18;;;;;;;;;;5034318;28;20909;-67
2023/07/09 09:41:21;;;;;;;19.92;5.82;;;;;;;;;;5032607;28;20538;-67
2023/07/09 09:43:48;;;;;;;20.67;6.00;;;;;;;;;;5020451;28;20037;-66
2023/07/09 09:46:18;;;;;;;14.50;5.25;;;;;;;;;;5019744;28;20053;-66
2023/07/09 09:48:46;;;;;;;20.27;6.07;;;;;;;;;;5032867;28;20111;-67
2023/07/09 09:51:14;;;;;;;20.40;6.43;;;;;;;;;;5022190;28;20519;-66
2023/07/09 09:53:41;;;;;;;19.92;5.95;;;;;;;;;;5024604;28;20133;-66
2023/07/09 09:56:13;;;;;;;21.02;5.57;;;;;;;;;;5017091;28;20037;-68
2023/07/09 09:58:41;;;;;;;25.00;5.68;;;;;;;;;;5020332;28;20116;-66
2023/07/09 10:01:14;;;;;;;19.20;5.85;;;;;;;;;;5015152;28;20324;-66
2023/07/09 10:03:40;;;;;;;21.08;6.05;;;;;;;;;;5004619;28;20033;-68
2023/07/09 10:06:11;;;;;;;16.80;5.82;;;;;;;;;;5018699;28;20041;-66
2023/07/09 10:08:44;;;;;;;26.13;5.70;;;;;;;;;;5034429;28;20061;-66
2023/07/09 10:11:29;;;;;;;21.08;5.60;;;;;;;;;;5019998;28;20025;-67
2023/07/09 10:13:58;;;;;;;29.53;6.47;;;;;;;;;;5024214;28;20025;-66
2023/07/09 10:16:30;;;;;;;17.05;5.25;;;;;;;;;;5020722;28;20036;-67
2023/07/09 10:18:56;;;;;;;18.08;5.65;;;;;;;;;;5019854;28;20044;-66
2023/07/09 10:21:37;;;;;;;18.23;5.53;;;;;;;;;;5016499;28;20041;-66
2023/07/09 10:24:11;;;;;;;17.63;5.80;;;;;;;;;;5011755;28;20116;-66
2023/07/09 10:26:47;;;;;;;18.90;6.13;;;;;;;;;;5024535;28;20051;-66
2023/07/09 10:29:22;;;;;;;21.15;6.10;;;;;;;;;;5022686;28;20099;-66
2023/07/09 10:31:54;;;;;;;20.70;5.95;;;;;;;;;;5020649;28;20037;-66
2023/07/09 10:34:30;;;;;;;19.02;5.90;;;;;;;;;;5020444;28;20025;-66
2023/07/09 10:37:05;;;;;;;18.88;6.00;;;;;;;;;;5024287;28;20037;-66
2023/07/09 10:39:34;;;;;;;21.52;6.30;;;;;;;;;;5024925;28;20033;-66
2023/07/09 10:42:02;;;;;;;18.55;5.82;;;;;;;;;;5017557;28;20110;-66
2023/07/09 10:44:31;;;;;;;18.77;6.65;;;;;;;;;;5019256;28;20025;-66
2023/07/09 10:47:04;;;;;;;22.42;5.63;;;;;;;;;;5021614;28;20440;-66
2023/07/09 10:49:33;;;;;;;18.60;6.10;;;;;;;;;;5022068;28;20177;-66
2023/07/09 10:52:08;;;;;;;19.25;5.55;;;;;;;;;;5015100;28;20025;-66
2023/07/09 10:54:39;;;;;;;17.83;6.00;;;;;;;;;;5018364;28;20037;-66
2023/07/09 10:57:11;;;;;;;24.98;6.25;;;;;;;;;;5017923;28;20021;-66
2023/07/09 10:59:40;;;;;;;19.98;6.18;;;;;;;;;;5021347;28;20040;-66
2023/07/09 11:02:25;;;;;;;21.48;5.97;;;;;;;;;;5012151;28;20383;-66
2023/07/09 11:04:55;;;;;;;22.75;5.82;;;;;;;;;;5017732;28;20367;-67
2023/07/09 11:07:48;;;;;;;19.05;5.60;;;;;;;;;;5011035;28;20107;-67
2023/07/09 11:10:28;;;;;;;20.92;6.00;;;;;;;;;;5010499;28;20072;-66
2023/07/09 11:13:06;;;;;;;20.88;5.70;;;;;;;;;;5040587;28;20589;-66
2023/07/09 11:15:33;;;;;;;19.70;5.65;;;;;;;;;;5020937;28;20763;-67
2023/07/09 11:18:00;;;;;;;16.48;5.28;;;;;;;;;;5017908;28;20040;-66
2023/07/09 11:20:33;;;;;;;23.10;5.97;;;;;;;;;;5025411;28;20035;-66
2023/07/09 11:23:04;;;;;;;18.08;5.85;;;;;;;;;;5020056;28;20079;-66
2023/07/09 11:25:33;;;;;;;18.58;5.85;;;;;;;;;;5021835;28;20033;-67
2023/07/09 11:28:07;;;;;;;18.13;5.60;;;;;;;;;;5015646;28;20036;-67
2023/07/09 11:30:33;;;;;;;20.45;5.65;;;;;;;;;;5036712;28;20112;-66
2023/07/09 11:33:02;;;;;;;24.10;5.57;;;;;;;;;;4999206;28;20063;-67
2023/07/09 11:35:29;;;;;;;19.27;5.53;;;;;;;;;;5026090;28;20073;-67
2023/07/09 11:37:58;;;;;;;21.20;5.82;;;;;;;;;;5022133;28;20051;-67
2023/07/09 11:40:25;;;;;;;20.52;6.13;;;;;;;;;;5024610;28;20044;-67
2023/07/09 11:42:58;;;;;;;18.33;5.30;;;;;;;;;;5021842;28;20124;-68
2023/07/09 11:45:34;;;;;;;17.23;5.65;;;;;;;;;;5023138;28;20040;-66
2023/07/09 11:48:26;;;;;;;19.70;5.65;;;;;;;;;;5017944;28;20601;-66
2023/07/09 11:50:54;;;;;;;18.92;5.20;;;;;;;;;;5020333;28;20176;-67
2023/07/09 11:53:20;;;;;;;17.58;5.20;;;;;;;;;;5017487;28;20292;-66
2023/07/09 11:55:47;;;;;;;16.27;5.55;;;;;;;;;;5020384;28;20208;-66
2023/07/09 11:58:16;;;;;;;14.75;5.28;;;;;;;;;;5021296;28;20025;-66
2023/07/09 12:00:44;;;;;;;20.40;6.30;;;;;;;;;;5031167;28;20029;-66
2023/07/09 12:03:14;;;;;;;18.73;5.82;;;;;;;;;;5017151;28;20658;-65
2023/07/09 12:05:42;;;;;;;17.55;5.57;;;;;;;;;;5024243;28;20032;-67
2023/07/09 12:08:08;;;;;;;16.10;5.03;;;;;;;;;;5018195;28;20060;-66
2023/07/09 12:10:36;;;;;;;19.25;5.85;;;;;;;;;;5020766;28;20568;-66
2023/07/09 12:13:03;;;;;;;17.98;5.75;;;;;;;;;;5021010;28;20028;-66
2023/07/09 12:15:31;;;;;;;18.85;5.50;;;;;;;;;;5021098;28;20117;-66
2023/07/09 12:17:59;;;;;;;16.10;5.10;;;;;;;;;;5018271;28;20035;-66
2023/07/09 12:20:26;;;;;;;16.33;4.97;;;;;;;;;;5022460;28;20405;-67
2023/07/09 12:22:53;;;;;;;17.48;5.85;;;;;;;;;;5022691;28;20028;-66
2023/07/09 12:25:21;;;;;;;20.52;5.80;;;;;;;;;;5015333;28;20322;-66
2023/07/09 12:27:47;;;;;;;14.13;4.95;;;;;;;;;;5023068;28;20029;-67
2023/07/09 12:30:14;;;;;;;17.90;5.28;;;;;;;;;;5017463;28;20079;-66
2023/07/09 12:32:52;;;;;;;18.17;5.18;;;;;;;;;;5019937;28;20567;-66
2023/07/09 12:35:19;;;;;;;23.05;5.70;;;;;;;;;;5015868;28;20034;-66
2023/07/09 12:37:46;;;;;;;15.98;5.30;;;;;;;;;;5021259;28;20025;-66
2023/07/09 12:40:18;;;;;;;18.20;5.57;;;;;;;;;;5016161;28;20584;-66
2023/07/09 12:42:44;;;;;;;18.02;5.15;;;;;;;;;;5023752;28;20363;-66
2023/07/09 12:45:21;;;;;;;18.65;5.50;;;;;;;;;;5016639;28;20081;-66
2023/07/09 12:47:48;;;;;;;17.58;5.35;;;;;;;;;;5019438;28;20460;-66
2023/07/09 12:50:29;;;;;;;16.52;5.43;;;;;;;;;;5018927;28;20033;-67
2023/07/09 12:52:56;;;;;;;19.13;5.50;;;;;;;;;;5012294;28;20426;-66
2023/07/09 12:55:25;;;;;;;17.85;4.95;;;;;;;;;;5019523;28;20066;-67
2023/07/09 12:57:51;;;;;;;19.00;4.97;;;;;;;;;;5019059;28;20033;-67
2023/07/09 13:00:18;;;;;;;16.27;4.90;;;;;;;;;;5015962;28;20377;-68
2023/07/09 13:02:45;;;;;;;19.17;5.40;;;;;;;;;;5018003;28;20024;-66
2023/07/09 13:05:18;;;;;;;17.40;4.88;;;;;;;;;;5015937;28;20036;-66
2023/07/09 13:07:47;;;;;;;20.83;5.40;;;;;;;;;;5022436;28;20490;-66
2023/07/09 13:10:18;;;;;;;19.48;5.90;;;;;;;;;;5017591;28;20168;-66
2023/07/09 13:12:50;;;;;;;17.38;5.38;;;;;;;;;;5031903;28;20411;-66
2023/07/09 13:15:30;;;;;;;21.63;5.63;;;;;;;;;;5034556;28;20838;-67
2023/07/09 13:18:02;;;;;;;19.65;4.80;;;;;;;;;;5020200;28;20036;-67
2023/07/09 13:20:29;;;;;;;20.35;4.47;;;;;;;;;;5022621;28;20059;-67
2023/07/09 13:22:55;;;;;;;16.92;5.10;;;;;;;;;;5020367;28;20033;-67
2023/07/09 13:25:22;;;;;;;14.50;4.65;;;;;;;;;;5014938;28;20561;-67
2023/07/09 13:27:48;;;;;;;15.82;4.68;;;;;;;;;;5019610;28;20039;-67
2023/07/09 13:30:14;;;;;;;14.75;4.90;;;;;;;;;;5017137;28;20570;-67
2023/07/09 13:32:40;;;;;;;18.55;4.90;;;;;;;;;;5023149;28;20026;-67
2023/07/09 13:35:26;;;;;;;16.45;5.10;;;;;;;;;;5017679;28;20115;-67
2023/07/09 13:37:52;;;;;;;15.43;4.40;;;;;;;;;;5018980;28;20036;-66
2023/07/09 13:40:18;;;;;;;17.73;5.03;;;;;;;;;;5013702;28;20325;-66
2023/07/09 13:42:44;;;;;;;16.73;4.57;;;;;;;;;;5020222;28;20271;-66
2023/07/09 13:45:16;;;;;;;17.92;6.13;;;;;;;;;;5016228;28;20056;-66
2023/07/09 13:47:43;;;;;;;15.90;5.15;;;;;;;;;;5021239;28;20060;-66
2023/07/09 13:50:09;;;;;;;19.25;5.10;;;;;;;;;;5017204;28;20048;-66
2023/07/09 13:52:35;;;;;;;19.45;4.95;;;;;;;;;;5018877;28;20033;-66
2023/07/09 13:55:01;;;;;;;19.27;4.90;;;;;;;;;;5018664;28;20025;-66
2023/07/09 13:57:29;;;;;;;23.92;5.07;;;;;;;;;;5016769;28;20517;-66
2023/07/09 13:59:57;;;;;;;13.80;4.70;;;;;;;;;;5019561;28;20286;-66
2023/07/09 14:02:29;;;;;;;16.48;5.90;;;;;;;;;;5021384;28;20053;-66
2023/07/09 14:04:55;;;;;;;16.17;5.18;;;;;;;;;;5017988;28;20144;-67
2023/07/09 14:07:30;;;;;;;14.52;4.80;;;;;;;;;;5021820;28;20175;-68
2023/07/09 14:09:59;;;;;;;16.17;4.93;;;;;;;;;;5025869;28;20183;-67
2023/07/09 14:12:26;;;;;;;17.63;5.10;;;;;;;;;;5022640;28;20124;-67
2023/07/09 14:14:53;;;;;;;15.65;4.40;;;;;;;;;;5024612;28;20040;-67
2023/07/09 14:17:19;;;;;;;16.77;4.45;;;;;;;;;;5019933;28;20037;-67
2023/07/09 14:19:45;;;;;;;15.82;4.88;;;;;;;;;;5021703;28;20029;-68
2023/07/09 14:22:21;;;;;;;14.52;4.80;;;;;;;;;;5019369;28;20033;-68
2023/07/09 14:24:47;;;;;;;14.20;4.47;;;;;;;;;;5018840;28;20052;-68
2023/07/09 14:27:13;;;;;;;13.25;4.45;;;;;;;;;;5017857;28;20499;-67
2023/07/09 14:29:39;;;;;;;14.30;4.63;;;;;;;;;;5020662;28;20036;-68
2023/07/09 14:32:06;;;;;;;16.48;5.00;;;;;;;;;;5016129;28;20586;-67
2023/07/09 14:34:39;;;;;;;13.88;4.32;;;;;;;;;;5021121;28;20063;-68
2023/07/09 14:37:05;;;;;;;15.50;5.17;;;;;;;;;;5033783;28;20033;-68